Flight Track Log - Related Links

Times and Time Zones

All times are in EDT time to prevent confusion due to time zone crossing. See the VH-SMM flight status page for this flight to view local times or setup timezone preferences in your user account.

Time Position Orientation Groundspeed Altitude Reporting Facility
EDT Latitude Longitude Course Direction KTS MPH feet Rate Location/Type
Sun 10:55:19 PM -27.5719 152.9743 172° South 86 99 800  Level Aus ATC (RADAR)
Sun 10:55:39 PM -27.5835 152.9760 172° South 109 125 1,100 71 Climbing Aus ATC (RADAR)
Sun 10:58:09 PM -27.6494 153.0376 140° Southeast 119 137 1,000 123 Descending Aus ATC (RADAR)
Sun 10:59:43 PM -27.6923 153.0553 160° South 105 121 1,600 588 Climbing Aus ATC (RADAR)
Sun 11:01:23 PM -27.7369 153.0418 195° South 100 115 2,900 750 Climbing Aus ATC (RADAR)
Sun 11:03:03 PM -27.7829 153.0269 196° South 105 121 4,100 663 Climbing Aus ATC (RADAR)
Sun 11:04:33 PM -27.8259 153.0134 195° South 106 122 5,000 635 Climbing Aus ATC (RADAR)
Sun 11:05:53 PM -27.8613 153.0015 197° South 100 115 5,900 660 Climbing Aus ATC (RADAR)
Sun 11:06:13 PM -27.8700 152.9989 195° South 99 114 6,100 528 Climbing Aus ATC (RADAR)
Sun 11:07:58 PM -27.9160 152.9837 196° South 105 121 7,000 270 Climbing Aus ATC (RADAR)
Sun 11:09:33 PM -27.9691 152.9693 194° South 127 146 7,000  Level Aus ATC (RADAR)
Sun 11:11:07 PM -28.0221 152.9488 199° South 128 147 7,000  Level Aus ATC (RADAR)
Sun 11:13:02 PM -28.0873 152.9251 198° South 127 146 7,000 -29 Level Aus ATC (RADAR)
Sun 11:14:32 PM -28.1385 152.9527 155° Southeast 142 163 6,900 -35 Descending Aus ATC (RADAR)
Sun 11:15:52 PM -28.1872 152.9700 163° South 136 157 6,900  Level Aus ATC (RADAR)
Sun 11:17:22 PM -28.2392 152.9918 160° South 131 151 6,900  Level Aus ATC (RADAR)
Sun 11:17:37 PM -28.2476 152.9961 156° South 131 151 6,900  Level Aus ATC (RADAR)
Sun 11:19:11 PM -28.3029 153.0187 160° South 133 153 6,900 -307 Level Aus ATC (RADAR)
Sun 11:22:11 PM -28.4127 153.0722 157° South 145 167 5,500 -444 Descending Aus ATC (RADAR)
Sun 11:23:41 PM -28.4716 153.0913 164° South 148 170 4,900 -343 Descending Aus ATC (RADAR)
Sun 11:23:56 PM -28.4786 153.0940 161° South 130 150 4,900  Level Aus ATC (RADAR)
Sun 11:27:21 PM -28.5989 153.1443 160° South 120 138 4,900 -221 Level Aus ATC (RADAR)
Sun 11:28:55 PM -28.6447 153.1680 156° South 112 129 3,800 -647 Descending Aus ATC (RADAR)
Sun 11:29:40 PM -28.6657 153.1788 156° South 109 125 3,400 -533 Descending Aus ATC (RADAR)
Sun 11:32:45 PM -28.7462 153.2181 156° South -1,103 Descending Aus ATC (Calculated)
Sun 11:35:00 PM -28.8171 153.2534 156° South  Level Estimated
Sun 11:36:00 PM -28.8303 153.2600 156° South  Level Estimated
Sun 11:37:00 PM -28.8303 153.2600 North  Level Estimated
Sun 11:38:00 PM -28.8303 153.2600 North  Level Estimated
Sun 11:39:00 PM -28.8303 153.2600 North  Level Estimated
Sun 11:40:00 PM -28.8303 153.2600 North  Level Estimated
Sun 11:41:00 PM -28.8303 153.2600 North  Level Estimated

Login

Don't have an account? Register now (free) for customized features, flight alerts, and more!